createdAt,value
2019-02-27T00:02:22.688Z,10.60
2019-02-27T00:04:47.652Z,10.00
2019-02-27T00:07:14.288Z,10.53
2019-02-27T00:09:40.977Z,10.23
2019-02-27T00:12:07.636Z,11.10
2019-02-27T00:14:34.440Z,12.13
2019-02-27T00:17:01.076Z,10.30
2019-02-27T00:19:31.128Z,10.30
2019-02-27T00:21:56.357Z,10.50
2019-02-27T00:24:22.988Z,11.37
2019-02-27T00:26:49.713Z,11.50
2019-02-27T00:29:16.432Z,10.63
2019-02-27T00:31:46.006Z,10.73
2019-02-27T00:34:11.652Z,11.60
2019-02-27T00:36:38.434Z,10.20
2019-02-27T00:39:05.062Z,10.63
2019-02-27T00:41:31.730Z,10.13
2019-02-27T00:44:01.114Z,10.83
2019-02-27T00:46:26.940Z,10.40
2019-02-27T00:48:53.694Z,10.60
2019-02-27T00:51:20.328Z,9.93
2019-02-27T00:53:47.006Z,9.23
2019-02-27T00:56:13.753Z,9.50
2019-02-27T00:58:40.421Z,9.90
2019-02-27T01:01:07.068Z,10.60
2019-02-27T01:03:33.844Z,9.80
2019-02-27T01:06:00.469Z,9.37
2019-02-27T01:08:27.611Z,9.70
2019-02-27T01:10:54.897Z,10.70
2019-02-27T01:13:21.621Z,9.97
2019-02-27T01:15:48.395Z,9.40
2019-02-27T01:18:15.030Z,10.43
2019-02-27T01:20:45.717Z,9.30
2019-02-27T01:23:11.138Z,9.30
2019-02-27T01:25:38.321Z,9.27
2019-02-27T01:28:04.949Z,9.43
2019-02-27T01:30:31.717Z,10.00
2019-02-27T01:32:58.360Z,9.30
2019-02-27T01:35:25.137Z,8.90
2019-02-27T01:37:51.768Z,9.70
2019-02-27T01:40:18.702Z,9.20
2019-02-27T01:42:45.422Z,9.00
2019-02-27T01:45:14.313Z,9.33
2019-02-27T01:47:40.948Z,9.20
2019-02-27T01:50:25.837Z,10.47
2019-02-27T01:52:52.576Z,9.60
2019-02-27T01:55:21.824Z,10.00
2019-02-27T01:57:47.749Z,10.10
2019-02-27T02:00:14.480Z,9.40
2019-02-27T02:02:41.170Z,9.43
2019-02-27T02:05:07.829Z,8.27
2019-02-27T02:10:10.160Z,9.13
2019-02-27T02:12:39.090Z,9.10
2019-02-27T02:15:14.917Z,8.50
2019-02-27T02:18:13.981Z,9.50
2019-02-27T02:21:01.680Z,9.67
2019-02-27T02:23:40.667Z,9.07
2019-02-27T02:26:27.645Z,9.20
2019-02-27T02:29:20.424Z,8.60
2019-02-27T02:31:54.568Z,9.77
2019-02-27T02:34:41.031Z,9.03
2019-02-27T02:37:23.577Z,8.03
2019-02-27T02:39:59.699Z,8.90
2019-02-27T02:42:45.094Z,8.07
2019-02-27T02:45:18.435Z,8.47
2019-02-27T02:47:55.838Z,8.40
2019-02-27T02:50:38.473Z,9.00
2019-02-27T02:53:31.603Z,9.40
2019-02-27T02:56:10.906Z,8.80
2019-02-27T02:58:59.490Z,9.03
2019-02-27T03:01:32.493Z,9.17
2019-02-27T03:04:19.523Z,8.47
2019-02-27T03:06:52.821Z,9.30
2019-02-27T03:09:30.813Z,8.97
2019-02-27T03:12:20.829Z,9.60
2019-02-27T03:14:54.547Z,9.33
2019-02-27T03:17:27.833Z,9.43
2019-02-27T03:20:18.998Z,8.40
2019-02-27T03:23:22.922Z,9.47
2019-02-27T03:26:16.894Z,9.47
2019-02-27T03:28:46.841Z,8.80
2019-02-27T03:31:23.149Z,9.00
2019-02-27T03:34:05.646Z,9.63
2019-02-27T03:36:40.782Z,8.97
2019-02-27T03:39:23.351Z,9.57
2019-02-27T03:42:14.678Z,9.73
2019-02-27T03:44:56.242Z,8.70
2019-02-27T03:47:32.078Z,9.20
2019-02-27T03:50:19.469Z,8.80
2019-02-27T03:53:17.522Z,9.80
2019-02-27T03:56:13.695Z,9.37
2019-02-27T03:58:53.291Z,9.47
2019-02-27T04:01:30.661Z,8.33
2019-02-27T04:04:16.818Z,8.90
2019-02-27T04:07:01.963Z,8.27
2019-02-27T04:09:28.827Z,9.37
2019-02-27T04:11:55.546Z,9.37
2019-02-27T04:14:30.919Z,9.10
2019-02-27T04:16:57.668Z,9.17
2019-02-27T04:19:24.542Z,9.37
2019-02-27T04:21:51.192Z,9.43
2019-02-27T04:24:22.166Z,9.47
2019-02-27T04:26:46.292Z,9.40
2019-02-27T04:29:12.968Z,9.13
2019-02-27T04:31:39.611Z,8.50
2019-02-27T04:34:06.289Z,9.07
2019-02-27T04:36:32.917Z,9.37
2019-02-27T04:39:00.016Z,9.10
2019-02-27T04:41:28.058Z,8.80
2019-02-27T04:43:54.689Z,8.57
2019-02-27T04:46:21.559Z,8.43
2019-02-27T04:48:49.125Z,8.80
2019-02-27T04:51:17.241Z,10.00
2019-02-27T04:53:44.359Z,8.27
2019-02-27T04:56:11.024Z,7.83
2019-02-27T04:58:37.674Z,8.33
2019-02-27T05:01:04.328Z,9.43
2019-02-27T05:03:31.074Z,8.23
2019-02-27T05:05:57.739Z,8.83
2019-02-27T05:08:26.915Z,9.13
2019-02-27T05:10:53.183Z,8.50
2019-02-27T05:13:20.847Z,8.83
2019-02-27T05:15:48.176Z,8.40
2019-02-27T05:18:14.850Z,8.30
2019-02-27T05:20:44.982Z,8.67
2019-02-27T05:23:10.157Z,8.27
2019-02-27T05:25:36.785Z,8.57
2019-02-27T05:28:03.549Z,8.70
2019-02-27T05:30:30.214Z,9.20
2019-02-27T05:33:01.821Z,8.63
2019-02-27T05:35:25.324Z,8.90
2019-02-27T05:37:52.097Z,10.00
2019-02-27T05:40:18.785Z,9.10
2019-02-27T05:42:45.476Z,9.70
2019-02-27T05:45:12.242Z,9.57
2019-02-27T05:47:38.898Z,18.90
2019-02-27T05:50:08.625Z,11.50
2019-02-27T05:52:35.376Z,9.70
2019-02-27T05:55:05.964Z,8.70
2019-02-27T05:57:31.434Z,8.93
2019-02-27T06:00:02.332Z,9.83
2019-02-27T06:02:26.728Z,10.97
2019-02-27T06:04:56.059Z,10.50
2019-02-27T06:07:21.957Z,9.67
2019-02-27T06:09:49.057Z,8.47
2019-02-27T06:12:15.978Z,8.30
2019-02-27T06:14:42.704Z,9.03
2019-02-27T06:17:10.181Z,9.37
2019-02-27T06:19:37.830Z,9.80
2019-02-27T06:22:05.844Z,9.63
2019-02-27T06:24:32.821Z,10.80
2019-02-27T06:26:59.478Z,10.53
2019-02-27T06:29:28.252Z,9.70
2019-02-27T06:31:54.624Z,9.87
2019-02-27T06:34:22.348Z,13.20
2019-02-27T06:36:49.845Z,15.57
2019-02-27T06:39:16.525Z,14.97
2019-02-27T06:41:43.267Z,15.13
2019-02-27T06:44:09.948Z,14.60
2019-02-27T06:46:36.587Z,13.03
2019-02-27T06:49:03.396Z,14.30
2019-02-27T06:51:30.041Z,14.60
2019-02-27T06:53:56.772Z,10.33
2019-02-27T06:56:23.464Z,11.50
2019-02-27T06:58:50.704Z,10.13
2019-02-27T07:01:17.432Z,10.07
2019-02-27T07:03:44.193Z,10.37
2019-02-27T07:06:10.818Z,10.07
2019-02-27T07:08:38.181Z,10.40
2019-02-27T07:11:10.942Z,11.33
2019-02-27T07:13:34.008Z,12.23
2019-02-27T07:16:00.814Z,13.70
2019-02-27T07:18:27.566Z,11.77
2019-02-27T07:20:55.683Z,10.87
2019-02-27T07:23:23.622Z,11.20
2019-02-27T07:25:50.585Z,11.90
2019-02-27T07:28:17.344Z,12.27
2019-02-27T07:30:44.120Z,11.10
2019-02-27T07:33:10.888Z,12.50
2019-02-27T07:35:37.597Z,11.30
2019-02-27T07:38:04.340Z,10.40
2019-02-27T07:40:31.105Z,12.30
2019-02-27T07:42:57.908Z,11.60
2019-02-27T07:45:24.624Z,11.20
2019-02-27T07:47:51.283Z,12.03
2019-02-27T07:50:20.921Z,11.60
2019-02-27T07:52:47.710Z,12.23
2019-02-27T07:55:21.586Z,11.90
2019-02-27T07:57:43.934Z,11.13
2019-02-27T08:00:22.139Z,11.97
2019-02-27T08:02:48.897Z,12.30
2019-02-27T08:05:15.576Z,11.60
2019-02-27T08:07:42.221Z,11.77
2019-02-27T08:10:17.915Z,11.70
2019-02-27T08:12:44.646Z,12.43
2019-02-27T08:15:16.220Z,11.70
2019-02-27T08:17:43.026Z,11.73
2019-02-27T08:20:11.167Z,11.67
2019-02-27T08:22:37.808Z,11.10
2019-02-27T08:25:07.794Z,12.33
2019-02-27T08:27:34.543Z,12.50
2019-02-27T08:30:01.347Z,12.50
2019-02-27T08:32:27.983Z,11.87
2019-02-27T08:34:54.648Z,12.33
2019-02-27T08:37:21.339Z,12.30
2019-02-27T08:39:48.057Z,11.70
2019-02-27T08:42:15.771Z,11.97
2019-02-27T08:44:43.040Z,10.00
2019-02-27T08:47:11.150Z,11.40
2019-02-27T08:49:37.785Z,10.50
2019-02-27T08:52:04.462Z,10.63
2019-02-27T08:54:32.998Z,12.30
2019-02-27T08:56:59.683Z,10.77
2019-02-27T08:59:26.440Z,10.80
2019-02-27T09:01:56.185Z,12.10
2019-02-27T09:04:21.649Z,11.03
2019-02-27T09:06:48.470Z,11.90
2019-02-27T09:09:17.921Z,11.10
2019-02-27T09:11:43.700Z,11.57
2019-02-27T09:14:12.024Z,11.20
2019-02-27T09:16:40.603Z,11.10
2019-02-27T09:19:09.463Z,11.63
2019-02-27T09:21:35.740Z,12.80
2019-02-27T09:24:02.408Z,11.57
2019-02-27T09:26:29.041Z,11.40
2019-02-27T09:28:55.701Z,11.90
2019-02-27T09:31:22.486Z,12.23
2019-02-27T09:33:53.005Z,11.17
2019-02-27T09:36:18.114Z,12.30
2019-02-27T09:38:45.249Z,11.40
2019-02-27T09:41:12.955Z,12.67
2019-02-27T09:43:39.922Z,11.00
2019-02-27T09:46:06.609Z,12.07
2019-02-27T09:48:33.585Z,12.27
2019-02-27T09:51:00.801Z,11.47
2019-02-27T09:53:27.466Z,12.57
2019-02-27T09:55:54.601Z,11.33
2019-02-27T09:58:22.675Z,12.60
2019-02-27T10:00:52.350Z,12.60
2019-02-27T10:03:21.113Z,12.50
2019-02-27T10:05:47.794Z,13.10
2019-02-27T10:08:14.737Z,12.70
2019-02-27T10:10:44.957Z,11.90
2019-02-27T10:13:10.106Z,13.77
2019-02-27T10:15:36.917Z,12.87
2019-02-27T10:18:03.616Z,13.57
2019-02-27T10:20:30.350Z,11.80
2019-02-27T10:22:57.136Z,13.83
2019-02-27T10:25:23.924Z,12.83
2019-02-27T10:27:50.577Z,11.73
2019-02-27T10:30:17.363Z,12.80
2019-02-27T10:32:44.016Z,12.37
2019-02-27T10:35:11.210Z,13.23
2019-02-27T10:37:37.928Z,11.90
2019-02-27T10:40:08.804Z,12.27
2019-02-27T10:42:36.990Z,12.40
2019-02-27T10:45:09.707Z,12.60
2019-02-27T10:47:36.248Z,12.43
2019-02-27T10:50:06.636Z,13.67
2019-02-27T10:52:33.260Z,12.57
2019-02-27T10:54:59.988Z,12.63
2019-02-27T10:57:31.455Z,12.73
2019-02-27T10:59:55.105Z,12.60
2019-02-27T11:02:23.459Z,12.60
2019-02-27T11:04:50.435Z,11.80
2019-02-27T11:07:17.193Z,11.40
2019-02-27T11:09:43.856Z,11.30
2019-02-27T11:12:10.613Z,12.53
2019-02-27T11:14:37.404Z,11.47
2019-02-27T11:17:04.078Z,12.00
2019-02-27T11:19:30.809Z,11.20
2019-02-27T11:21:58.327Z,11.47
2019-02-27T11:24:25.743Z,12.60
2019-02-27T11:26:52.398Z,10.30
2019-02-27T11:29:23.587Z,11.67
2019-02-27T11:31:47.549Z,12.27
2019-02-27T11:34:16.094Z,12.00
2019-02-27T11:36:42.848Z,11.40
2019-02-27T11:39:09.922Z,11.37
2019-02-27T11:41:36.665Z,12.00
2019-02-27T11:44:03.357Z,11.20
2019-02-27T11:46:29.987Z,11.27
2019-02-27T11:48:57.010Z,11.77
2019-02-27T11:51:25.215Z,12.27
2019-02-27T11:53:51.876Z,11.10
2019-02-27T11:56:20.248Z,12.30
2019-02-27T11:58:47.018Z,12.40
2019-02-27T12:01:13.805Z,11.57
2019-02-27T12:03:40.449Z,11.40
2019-02-27T12:06:07.802Z,11.90
2019-02-27T12:08:35.084Z,11.77
2019-02-27T12:11:01.789Z,11.90
2019-02-27T12:13:28.475Z,12.00
2019-02-27T12:15:55.111Z,11.97
2019-02-27T12:18:23.597Z,11.50
2019-02-27T12:20:53.258Z,10.37
2019-02-27T12:23:18.908Z,11.63
2019-02-27T12:25:45.669Z,11.20
2019-02-27T12:28:15.160Z,10.80
2019-02-27T12:30:41.210Z,11.20
2019-02-27T12:33:08.015Z,11.47
2019-02-27T12:35:35.847Z,11.70
2019-02-27T12:38:06.911Z,11.20
2019-02-27T12:40:31.963Z,11.17
2019-02-27T12:42:58.603Z,11.03
2019-02-27T12:45:29.858Z,11.60
2019-02-27T12:47:56.794Z,11.33
2019-02-27T12:50:26.835Z,11.70
2019-02-27T12:52:53.932Z,10.90
2019-02-27T12:55:20.634Z,13.30
2019-02-27T12:57:49.542Z,11.90
2019-02-27T13:00:28.675Z,10.63
2019-02-27T13:02:56.028Z,12.00
2019-02-27T13:05:26.400Z,12.57
2019-02-27T13:07:51.187Z,12.80
2019-02-27T13:10:27.431Z,11.00
2019-02-27T13:12:54.105Z,11.20
2019-02-27T13:15:25.803Z,10.77
2019-02-27T13:17:56.282Z,9.73
2019-02-27T13:20:25.960Z,9.63
2019-02-27T13:22:52.611Z,9.40
2019-02-27T13:25:21.382Z,10.37
2019-02-27T13:27:47.942Z,11.20
2019-02-27T13:30:22.290Z,9.63
2019-02-27T13:32:48.957Z,9.23
2019-02-27T13:35:15.835Z,9.10
2019-02-27T13:37:44.540Z,9.57
2019-02-27T13:40:22.454Z,10.23
2019-02-27T13:42:52.404Z,9.13
2019-02-27T13:45:20.389Z,8.70
2019-02-27T13:47:47.261Z,8.80
2019-02-27T13:50:14.292Z,9.57
2019-02-27T13:52:41.157Z,9.30
2019-02-27T13:55:11.154Z,10.63
2019-02-27T13:57:38.714Z,10.20
2019-02-27T14:00:11.784Z,10.00
2019-02-27T14:02:39.451Z,8.67
2019-02-27T14:05:07.802Z,8.83
2019-02-27T14:07:34.444Z,11.60
2019-02-27T14:10:01.266Z,9.37
2019-02-27T14:12:29.967Z,9.63
2019-02-27T14:14:56.525Z,9.40
2019-02-27T14:17:23.161Z,7.80
2019-02-27T14:19:49.968Z,8.23
2019-02-27T14:22:16.750Z,9.70
2019-02-27T14:24:43.555Z,7.30
2019-02-27T14:27:11.989Z,7.60
2019-02-27T14:29:38.804Z,7.70
2019-02-27T14:32:05.472Z,8.07
2019-02-27T14:34:32.165Z,7.77
2019-02-27T14:36:58.911Z,8.37
2019-02-27T14:39:26.896Z,7.37
2019-02-27T14:41:54.378Z,6.90
2019-02-27T14:44:21.017Z,8.87
2019-02-27T14:46:48.305Z,7.33
2019-02-27T14:49:15.092Z,8.40
2019-02-27T14:51:41.897Z,7.30
2019-02-27T14:54:08.564Z,7.97
2019-02-27T14:56:35.226Z,7.37
2019-02-27T14:59:01.966Z,7.43
2019-02-27T15:01:28.629Z,6.30
2019-02-27T15:03:55.303Z,6.73
2019-02-27T15:06:22.097Z,8.20
2019-02-27T15:08:57.721Z,7.57
2019-02-27T15:11:17.446Z,6.93
2019-02-27T15:13:44.201Z,7.10
2019-02-27T15:16:10.849Z,7.17
2019-02-27T15:18:37.625Z,6.90
2019-02-27T15:21:04.388Z,7.20
2019-02-27T15:23:31.065Z,7.60
2019-02-27T15:25:57.725Z,6.80
2019-02-27T15:28:24.509Z,6.50
2019-02-27T15:30:51.196Z,7.00
2019-02-27T15:33:17.821Z,7.47
2019-02-27T15:35:44.520Z,6.43
2019-02-27T15:38:11.760Z,7.13
2019-02-27T15:40:39.228Z,6.30
2019-02-27T15:43:11.216Z,8.33
2019-02-27T15:45:34.473Z,7.87
2019-02-27T15:48:03.804Z,8.17
2019-02-27T15:50:31.316Z,8.47
2019-02-27T15:52:57.949Z,8.13
2019-02-27T15:55:24.695Z,8.07
2019-02-27T15:57:53.786Z,8.17
2019-02-27T16:00:23.601Z,8.47
2019-02-27T16:02:50.291Z,8.40
2019-02-27T16:05:16.916Z,9.40
2019-02-27T16:07:48.485Z,9.73
2019-02-27T16:10:22.485Z,9.37
2019-02-27T16:12:49.191Z,9.77
2019-02-27T16:15:17.964Z,9.47
2019-02-27T16:17:45.262Z,8.13
2019-02-27T16:20:16.135Z,7.93
2019-02-27T16:22:42.794Z,9.70
2019-02-27T16:25:18.271Z,9.10
2019-02-27T16:27:43.942Z,8.10
2019-02-27T16:30:16.997Z,9.03
2019-02-27T16:32:47.982Z,8.70
2019-02-27T16:35:12.349Z,9.07
2019-02-27T16:37:39.022Z,9.03
2019-02-27T16:40:18.057Z,8.57
2019-02-27T16:42:44.335Z,9.27
2019-02-27T16:45:14.673Z,10.20
2019-02-27T16:47:42.704Z,9.73
2019-02-27T16:50:12.387Z,9.00
2019-02-27T16:52:42.073Z,9.17
2019-02-27T16:55:13.449Z,9.83
2019-02-27T16:57:40.212Z,11.73
2019-02-27T17:00:10.742Z,13.10
2019-02-27T17:02:38.265Z,25.53
2019-02-27T17:05:09.558Z,13.90
2019-02-27T17:07:36.446Z,10.20
2019-02-27T17:10:09.518Z,9.50
2019-02-27T17:12:38.247Z,9.10
2019-02-27T17:15:04.709Z,10.13
2019-02-27T17:17:31.750Z,9.73
2019-02-27T17:19:59.340Z,9.77
2019-02-27T17:22:30.240Z,9.17
2019-02-27T17:24:55.239Z,10.37
2019-02-27T17:27:22.692Z,10.33
2019-02-27T17:29:49.469Z,10.63
2019-02-27T17:32:16.700Z,9.70
2019-02-27T17:34:47.312Z,9.47
2019-02-27T17:37:11.917Z,9.27
2019-02-27T17:39:38.636Z,9.80
2019-02-27T17:42:05.338Z,9.60
2019-02-27T17:44:32.184Z,8.87
2019-02-27T17:46:59.296Z,10.43
2019-02-27T17:49:26.309Z,10.60
2019-02-27T17:51:52.959Z,10.83
2019-02-27T17:54:19.757Z,10.97
2019-02-27T17:56:47.233Z,12.07
2019-02-27T17:59:14.976Z,14.43
2019-02-27T18:01:41.949Z,12.60
2019-02-27T18:04:08.923Z,12.60
2019-02-27T18:06:35.782Z,14.20
2019-02-27T18:09:04.571Z,12.20
2019-02-27T18:11:31.709Z,12.97
2019-02-27T18:13:58.536Z,12.87
2019-02-27T18:16:27.274Z,13.80
2019-02-27T18:18:53.700Z,12.57
2019-02-27T18:21:20.625Z,14.40
2019-02-27T18:23:48.067Z,15.10
2019-02-27T18:26:15.773Z,17.30
2019-02-27T18:28:43.190Z,20.00
2019-02-27T18:31:10.006Z,19.87
2019-02-27T18:33:36.680Z,21.37
2019-02-27T18:36:04.850Z,19.50
2019-02-27T18:38:32.141Z,19.67
2019-02-27T18:40:59.019Z,19.00
2019-02-27T18:43:27.215Z,19.63
2019-02-27T18:45:54.289Z,16.37
2019-02-27T18:48:21.655Z,16.67
2019-02-27T18:50:48.345Z,16.57
2019-02-27T18:53:15.038Z,18.53
2019-02-27T18:55:41.736Z,18.10
2019-02-27T18:58:08.576Z,20.60
2019-02-27T19:00:36.231Z,19.17
2019-02-27T19:03:09.100Z,18.63
2019-02-27T19:05:38.245Z,19.23
2019-02-27T19:08:04.459Z,19.27
2019-02-27T19:10:31.316Z,32.10
2019-02-27T19:12:59.932Z,41.30
2019-02-27T19:15:26.722Z,34.47
2019-02-27T19:17:53.633Z,29.50
2019-02-27T19:20:36.974Z,24.17
2019-02-27T19:23:03.936Z,21.63
2019-02-27T19:25:34.123Z,22.43
2019-02-27T19:27:59.295Z,20.20
2019-02-27T19:30:27.073Z,18.40
2019-02-27T19:32:58.283Z,17.17
2019-02-27T19:35:22.553Z,18.30
2019-02-27T19:37:49.313Z,15.87
2019-02-27T19:40:18.168Z,18.73
2019-02-27T19:42:51.382Z,19.20
2019-02-27T19:45:18.119Z,19.53
2019-02-27T19:47:45.469Z,17.00
2019-02-27T19:50:12.501Z,16.70
2019-02-27T19:52:39.652Z,17.20
2019-02-27T19:55:08.940Z,17.60
2019-02-27T19:57:39.386Z,17.73
2019-02-27T20:00:12.861Z,15.33
2019-02-27T20:02:39.822Z,9.20
2019-02-27T20:05:07.236Z,8.30
2019-02-27T20:07:35.773Z,6.90
2019-02-27T20:10:05.497Z,7.27
2019-02-27T20:12:32.308Z,6.30
2019-02-27T20:14:59.649Z,6.73
2019-02-27T20:17:26.648Z,6.83
2019-02-27T20:19:54.952Z,8.10
2019-02-27T20:22:21.624Z,7.67
2019-02-27T20:24:48.554Z,7.50
2019-02-27T20:27:15.807Z,7.70
2019-02-27T20:29:42.475Z,8.50
2019-02-27T20:32:09.160Z,8.70
2019-02-27T20:34:35.820Z,9.57
2019-02-27T20:37:07.157Z,8.83
2019-02-27T20:39:32.883Z,9.13
2019-02-27T20:42:01.494Z,9.70
2019-02-27T20:44:28.001Z,9.87
2019-02-27T20:46:54.796Z,11.50
2019-02-27T20:49:21.590Z,10.20
2019-02-27T20:51:48.331Z,9.87
2019-02-27T20:54:15.019Z,9.30
2019-02-27T20:56:41.678Z,9.90
2019-02-27T20:59:09.282Z,8.77
2019-02-27T21:01:35.916Z,9.10
2019-02-27T21:04:04.513Z,9.93
2019-02-27T21:06:31.166Z,11.57
2019-02-27T21:08:57.926Z,10.00
2019-02-27T21:11:29.480Z,9.40
2019-02-27T21:13:53.190Z,8.70
2019-02-27T21:16:20.024Z,8.30
2019-02-27T21:18:46.849Z,8.00
2019-02-27T21:21:13.481Z,7.80
2019-02-27T21:23:40.172Z,7.53
2019-02-27T21:26:06.873Z,7.33
2019-02-27T21:28:33.669Z,7.70
2019-02-27T21:31:00.345Z,8.17
2019-02-27T21:33:27.099Z,8.87
2019-02-27T21:35:53.785Z,7.97
2019-02-27T21:38:20.412Z,6.90
2019-02-27T21:40:48.346Z,7.17
2019-02-27T21:43:14.947Z,6.93
2019-02-27T21:45:41.756Z,6.90
2019-02-27T21:48:08.517Z,7.40
2019-02-27T21:50:39.568Z,7.67
2019-02-27T21:53:04.107Z,7.80
2019-02-27T21:55:30.758Z,7.93
2019-02-27T21:57:58.254Z,7.60
2019-02-27T22:00:28.051Z,7.77
2019-02-27T22:02:55.948Z,7.57
2019-02-27T22:05:22.599Z,7.90
2019-02-27T22:07:49.527Z,7.70
2019-02-27T22:10:19.511Z,7.53
2019-02-27T22:12:45.076Z,8.20
2019-02-27T22:15:26.757Z,7.30
2019-02-27T22:17:53.521Z,7.90
2019-02-27T22:20:25.731Z,7.00
2019-02-27T22:22:50.900Z,8.07
2019-02-27T22:25:17.691Z,8.23
2019-02-27T22:27:45.975Z,7.83
2019-02-27T22:30:18.098Z,8.43
2019-02-27T22:32:47.742Z,8.00
2019-02-27T22:35:13.374Z,8.17
2019-02-27T22:37:40.160Z,7.67
2019-02-27T22:40:09.824Z,8.23
2019-02-27T22:42:36.493Z,7.80
2019-02-27T22:45:06.570Z,8.63
2019-02-27T22:47:33.866Z,8.47
2019-02-27T22:50:03.356Z,8.40
2019-02-27T22:52:28.980Z,9.30
2019-02-27T22:54:55.670Z,8.97
2019-02-27T22:57:22.897Z,8.17
2019-02-27T22:59:50.260Z,8.27
2019-02-27T23:02:17.516Z,8.50
2019-02-27T23:04:44.182Z,8.73
2019-02-27T23:07:11.130Z,9.67
2019-02-27T23:09:39.111Z,9.20
2019-02-27T23:12:08.504Z,9.77
2019-02-27T23:14:34.611Z,8.77
2019-02-27T23:17:01.355Z,9.27
2019-02-27T23:19:28.182Z,9.60
2019-02-27T23:21:57.514Z,8.90
2019-02-27T23:24:23.293Z,9.00
2019-02-27T23:26:54.522Z,8.93
2019-02-27T23:29:18.409Z,8.87
2019-02-27T23:31:45.037Z,9.00
2019-02-27T23:34:11.691Z,9.17
2019-02-27T23:36:38.369Z,9.33
2019-02-27T23:39:08.524Z,9.63
2019-02-27T23:41:34.536Z,9.77
2019-02-27T23:44:01.156Z,9.70
2019-02-27T23:46:27.848Z,9.03
2019-02-27T23:48:54.474Z,10.27
2019-02-27T23:51:21.111Z,9.60
2019-02-27T23:53:47.780Z,10.20
2019-02-27T23:56:19.301Z,9.33
2019-02-27T23:58:44.248Z,9.43
